Time;durP1;ratioP1;P1;durP2;ratioP2;P2;SDS_P1;SDS_P2;PMS_P1;PMS_P2;Temp;Humidity;BMP_temperature;BMP_pressure;BME280_temperature;BME280_humidity;BME280_pressure;Samples;Min_cycle;Max_cycle;Signal;HPM_P1;HPM_P2
2022/03/18 00:01:32;;;;;;;13.13;4.75;;;;;;;2.63;100.00;103904.13;6178126;23;20378;-77
2022/03/18 00:04:03;;;;;;;10.93;5.57;;;;;;;2.62;100.00;103912.69;6183023;23;20454;-77
2022/03/18 00:06:33;;;;;;;14.57;5.40;;;;;;;2.59;100.00;103915.06;6175540;23;20222;-76
2022/03/18 00:09:01;;;;;;;12.02;4.97;;;;;;;2.60;100.00;103921.16;6216854;23;20013;-76
2022/03/18 00:11:31;;;;;;;11.05;5.57;;;;;;;2.58;100.00;103917.53;6204830;23;20020;-76
2022/03/18 00:14:02;;;;;;;10.35;4.93;;;;;;;2.57;100.00;103924.44;6171441;23;20022;-76
2022/03/18 00:16:35;;;;;;;11.40;5.35;;;;;;;2.53;100.00;103933.66;6181147;23;20126;-76
2022/03/18 00:19:04;;;;;;;11.07;5.25;;;;;;;2.51;100.00;103931.69;6187063;23;20024;-75
2022/03/18 00:21:36;;;;;;;11.57;5.07;;;;;;;2.48;100.00;103934.97;6235867;23;20020;-78
2022/03/18 00:24:05;;;;;;;16.58;5.30;;;;;;;2.45;100.00;103937.28;6207119;23;20027;-78
2022/03/18 00:26:33;;;;;;;11.95;5.90;;;;;;;2.45;100.00;103945.09;6176228;23;20028;-76
2022/03/18 00:29:03;;;;;;;14.18;6.15;;;;;;;2.43;100.00;103940.56;6237030;23;20343;-76
2022/03/18 00:31:35;;;;;;;15.65;5.72;;;;;;;2.41;100.00;103944.72;6153309;23;20028;-76
2022/03/18 00:34:06;;;;;;;19.25;5.50;;;;;;;2.40;100.00;103948.09;6215018;23;20035;-77
2022/03/18 00:36:35;;;;;;;11.38;5.40;;;;;;;2.38;100.00;103942.75;6194536;23;20233;-77
2022/03/18 00:39:05;;;;;;;16.20;5.25;;;;;;;2.37;100.00;103945.25;6173071;23;20008;-76
2022/03/18 00:41:34;;;;;;;12.47;5.30;;;;;;;2.35;100.00;103945.09;6178914;23;20024;-77
2022/03/18 00:44:03;;;;;;;8.45;4.88;;;;;;;2.31;100.00;103941.31;6204788;23;20024;-77
2022/03/18 00:46:31;;;;;;;16.98;5.72;;;;;;;2.31;100.00;103946.53;6186114;23;20253;-76
2022/03/18 00:52:04;;;;;;;15.23;5.40;;;;;;;2.29;100.00;103941.97;6189641;23;20229;-76
2022/03/18 00:54:40;;;;;;;11.27;5.38;;;;;;;2.28;100.00;103948.84;6189537;23;20123;-76
2022/03/18 00:57:10;;;;;;;12.07;5.13;;;;;;;2.28;100.00;103935.84;6153472;23;20457;-76
2022/03/18 00:59:39;;;;;;;14.50;5.15;;;;;;;2.27;100.00;103949.66;6139688;23;20232;-77
2022/03/18 01:02:07;;;;;;;10.52;5.45;;;;;;;2.25;100.00;103951.19;6129054;23;20026;-77
2022/03/18 01:04:37;;;;;;;13.43;5.20;;;;;;;2.24;100.00;103951.97;6091604;23;20021;-76
2022/03/18 01:07:05;;;;;;;11.98;4.97;;;;;;;2.23;100.00;103952.75;6093671;23;20021;-77
2022/03/18 01:09:34;;;;;;;18.15;6.68;;;;;;;2.22;100.00;103955.22;6125671;23;20035;-78
2022/03/18 01:12:04;;;;;;;14.50;5.45;;;;;;;2.23;100.00;103957.97;6095740;23;20025;-76
2022/03/18 01:14:33;;;;;;;13.35;5.65;;;;;;;2.25;100.00;103958.06;6067639;23;20151;-76
2022/03/18 01:17:02;;;;;;;16.20;6.45;;;;;;;2.28;100.00;103950.53;6127326;23;20025;-77
2022/03/18 01:19:30;;;;;;;9.02;5.75;;;;;;;2.29;100.00;103963.69;6150339;23;20329;-76
2022/03/18 01:21:59;;;;;;;19.75;5.55;;;;;;;2.30;100.00;103960.28;6115243;23;20021;-77
2022/03/18 01:24:28;;;;;;;15.75;6.13;;;;;;;2.32;100.00;103953.53;6124700;23;20029;-76
2022/03/18 01:26:57;;;;;;;18.02;7.57;;;;;;;2.31;100.00;103953.44;6059801;23;20029;-76
2022/03/18 01:29:25;;;;;;;11.40;5.47;;;;;;;2.30;100.00;103944.69;6090459;23;20022;-76
2022/03/18 01:31:56;;;;;;;11.15;5.05;;;;;;;2.30;100.00;103948.97;6198576;23;20031;-77
2022/03/18 01:34:26;;;;;;;16.55;5.43;;;;;;;2.28;100.00;103954.06;6194332;23;20020;-76
2022/03/18 01:36:55;;;;;;;18.77;5.95;;;;;;;2.27;100.00;103962.66;6158765;23;20024;-76
2022/03/18 01:39:23;;;;;;;17.77;6.28;;;;;;;2.25;100.00;103961.63;6135889;23;20023;-76
2022/03/18 01:41:55;;;;;;;12.27;5.82;;;;;;;2.24;100.00;103957.16;6212260;23;20027;-77
2022/03/18 01:44:24;;;;;;;18.90;7.28;;;;;;;2.23;100.00;103963.16;6175316;23;20031;-76
2022/03/18 01:46:52;;;;;;;13.00;5.82;;;;;;;2.23;100.00;103972.66;6195896;23;20446;-76
2022/03/18 01:49:21;;;;;;;15.15;6.32;;;;;;;2.20;100.00;103962.91;6134203;23;20028;-76
2022/03/18 01:51:50;;;;;;;12.43;5.80;;;;;;;2.22;100.00;103966.53;6184062;23;20316;-77
2022/03/18 01:57:06;;;;;;;12.57;6.18;;;;;;;2.22;100.00;103976.03;6186071;23;20031;-78
2022/03/18 01:59:35;;;;;;;21.42;6.63;;;;;;;2.22;100.00;103968.25;6171029;23;20020;-77
2022/03/18 02:02:04;;;;;;;12.70;6.45;;;;;;;2.20;100.00;103956.78;6217067;23;20360;-79
2022/03/18 02:04:34;;;;;;;17.80;6.55;;;;;;;2.18;100.00;103959.25;6249062;23;20241;-80
2022/03/18 02:07:03;;;;;;;17.08;7.43;;;;;;;2.17;100.00;103947.00;6251565;23;20441;-79
2022/03/18 02:09:32;;;;;;;18.65;6.95;;;;;;;2.16;100.00;103953.00;6215105;23;20012;-80
2022/03/18 02:12:02;;;;;;;18.85;6.78;;;;;;;2.14;100.00;103960.66;6215003;23;20326;-79
2022/03/18 02:14:38;;;;;;;20.02;7.78;;;;;;;2.14;100.00;103970.16;6153018;23;20031;-80
2022/03/18 02:17:09;;;;;;;17.17;7.30;;;;;;;2.14;100.00;103963.28;6253686;23;20020;-80
2022/03/18 02:19:38;;;;;;;;;;;;;;;2.17;100.00;103966.91;6248793;23;20012;-77
2022/03/18 02:22:23;;;;;;;19.70;8.10;;;;;;;2.21;100.00;103969.00;6226895;23;19916;-81
2022/03/18 02:24:54;;;;;;;23.63;8.15;;;;;;;2.23;100.00;103960.56;6246599;23;20027;-79
2022/03/18 02:27:22;;;;;;;16.17;9.05;;;;;;;2.27;100.00;103964.31;6196810;23;20530;-80
2022/03/18 02:29:51;;;;;;;23.92;8.15;;;;;;;2.29;100.00;103966.31;6220785;23;20423;-79
2022/03/18 02:32:21;;;;;;;20.27;8.98;;;;;;;2.31;100.00;103976.84;6201008;23;20016;-79
2022/03/18 02:34:50;;;;;;;22.27;9.27;;;;;;;2.30;100.00;103986.31;6177845;23;20127;-80
2022/03/18 02:37:18;;;;;;;20.77;9.38;;;;;;;2.29;100.00;103984.53;6248758;23;20024;-78
2022/03/18 02:39:46;;;;;;;16.58;8.98;;;;;;;2.30;100.00;103982.81;6186895;23;20201;-80
2022/03/18 02:42:15;;;;;;;19.45;8.93;;;;;;;2.31;100.00;103988.16;6217893;23;20024;-79
2022/03/18 02:44:44;;;;;;;15.38;8.30;;;;;;;2.30;100.00;103985.41;6239788;23;20023;-79
2022/03/18 02:47:13;;;;;;;20.70;9.95;;;;;;;2.29;100.00;103981.91;6252462;23;20051;-79
2022/03/18 02:49:42;;;;;;;17.58;8.30;;;;;;;2.29;100.00;103979.31;6187680;23;20312;-78
2022/03/18 02:52:10;;;;;;;18.38;8.93;;;;;;;2.29;100.00;103979.31;6243661;23;20027;-80
2022/03/18 02:54:39;;;;;;;17.02;8.82;;;;;;;2.29;100.00;103975.81;6248598;23;20012;-79
2022/03/18 02:57:09;;;;;;;15.60;9.13;;;;;;;2.29;100.00;103978.41;6223407;23;20027;-81
2022/03/18 02:59:38;;;;;;;22.48;9.48;;;;;;;2.27;100.00;103983.47;6213085;23;20024;-79
2022/03/18 03:02:07;;;;;;;24.05;9.25;;;;;;;2.28;100.00;103984.38;6214554;23;20020;-80
2022/03/18 03:07:58;;;;;;;17.38;8.50;;;;;;;2.28;100.00;103979.16;6249616;23;20016;-79
2022/03/18 03:10:13;;;;;;;20.85;9.50;;;;;;;2.28;100.00;103982.69;6189048;23;20020;-81
2022/03/18 03:12:42;;;;;;;16.73;9.02;;;;;;;2.25;100.00;103982.44;6247008;23;20016;-80
2022/03/18 03:15:14;;;;;;;20.90;9.35;;;;;;;2.25;100.00;103991.91;6224815;23;20031;-81
2022/03/18 03:17:42;;;;;;;28.35;9.10;;;;;;;2.24;100.00;104001.41;6181269;23;20625;-79
2022/03/18 03:20:11;;;;;;;26.50;9.63;;;;;;;2.25;100.00;103998.03;6225993;23;20020;-80
2022/03/18 03:22:40;;;;;;;15.77;9.43;;;;;;;2.25;100.00;103995.44;6250062;23;20024;-80
2022/03/18 03:25:10;;;;;;;18.30;8.65;;;;;;;2.22;100.00;104002.97;6200477;23;20012;-80
2022/03/18 03:27:41;;;;;;;18.85;9.25;;;;;;;2.22;100.00;104008.16;6211339;23;20173;-79
2022/03/18 03:30:10;;;;;;;19.38;9.88;;;;;;;2.24;100.00;104005.72;6244553;23;20016;-81
2022/03/18 03:32:39;;;;;;;20.35;8.93;;;;;;;2.23;100.00;103999.59;6215150;23;20519;-80
2022/03/18 03:35:08;;;;;;;17.38;8.35;;;;;;;2.22;100.00;104015.97;6223555;23;20016;-80
2022/03/18 03:37:37;;;;;;;17.80;8.48;;;;;;;2.23;100.00;104019.47;6219066;23;20490;-81
2022/03/18 03:40:05;;;;;;;19.45;8.80;;;;;;;2.20;100.00;104022.75;6202085;23;20021;-80
2022/03/18 03:42:34;;;;;;;21.70;9.57;;;;;;;2.19;100.00;104022.59;6224864;23;20459;-80
2022/03/18 03:45:03;;;;;;;13.88;9.18;;;;;;;2.19;100.00;104027.81;6225927;23;20019;-79
2022/03/18 03:47:31;;;;;;;18.55;8.43;;;;;;;2.16;100.00;104028.47;6188035;23;20024;-79
2022/03/18 03:50:00;;;;;;;19.23;8.95;;;;;;;2.14;100.00;104036.13;6223703;23;20019;-80
2022/03/18 03:52:28;;;;;;;17.45;8.82;;;;;;;2.14;100.00;104035.22;6245381;23;20012;-79
2022/03/18 03:54:57;;;;;;;19.13;8.85;;;;;;;2.13;100.00;104034.28;6188198;23;20031;-79
2022/03/18 03:57:25;;;;;;;15.55;7.38;;;;;;;2.12;100.00;104027.25;6195926;23;20020;-81
2022/03/18 03:59:57;;;;;;;16.08;9.63;;;;;;;2.12;100.00;104027.25;6193053;23;20350;-81
2022/03/18 04:02:27;;;;;;;14.25;8.25;;;;;;;2.13;100.00;104028.16;6222091;23;20012;-79
2022/03/18 04:04:59;;;;;;;18.15;8.52;;;;;;;2.16;100.00;104032.75;6212957;23;20476;-80
2022/03/18 04:07:27;;;;;;;16.10;8.95;;;;;;;2.16;100.00;104036.25;6192487;23;20029;-79
2022/03/18 04:09:56;;;;;;;15.18;8.45;;;;;;;2.18;100.00;104042.50;6244778;23;20027;-79
2022/03/18 04:12:24;;;;;;;22.17;9.02;;;;;;;2.16;100.00;104041.47;6219257;23;20324;-79
2022/03/18 04:14:53;;;;;;;13.40;8.18;;;;;;;2.18;100.00;104046.81;6222006;23;20039;-79
2022/03/18 04:17:22;;;;;;;13.60;9.10;;;;;;;2.18;100.00;104052.91;6181220;23;20489;-79
2022/03/18 04:19:51;;;;;;;16.17;8.80;;;;;;;2.22;100.00;104051.50;6212550;23;20025;-80
2022/03/18 04:22:22;;;;;;;16.67;9.00;;;;;;;2.27;100.00;104063.22;6217567;23;20354;-80
2022/03/18 04:24:51;;;;;;;17.80;8.40;;;;;;;2.32;100.00;104062.84;6219666;23;20020;-80
2022/03/18 04:27:21;;;;;;;16.17;8.60;;;;;;;2.40;100.00;104070.41;6194885;23;20028;-81
2022/03/18 04:29:49;;;;;;;14.00;8.75;;;;;;;2.45;100.00;104079.56;6205127;23;20516;-80
2022/03/18 04:32:18;;;;;;;14.77;8.30;;;;;;;2.51;100.00;104078.41;6216933;23;20480;-80
2022/03/18 04:34:46;;;;;;;16.13;8.73;;;;;;;2.59;100.00;104084.28;6184644;23;20024;-79
2022/03/18 04:37:15;;;;;;;15.63;9.27;;;;;;;2.65;100.00;104089.13;6157598;23;20032;-80
2022/03/18 04:39:43;;;;;;;18.70;9.63;;;;;;;2.69;100.00;104080.81;6223374;23;20571;-79
2022/03/18 04:42:12;;;;;;;17.52;9.30;;;;;;;2.75;100.00;104089.13;6227748;23;20020;-80
2022/03/18 04:44:41;;;;;;;17.92;9.13;;;;;;;2.81;100.00;104086.16;6205443;23;20048;-79
2022/03/18 04:47:10;;;;;;;13.95;7.90;;;;;;;2.86;100.00;104100.50;6159175;23;20022;-80
2022/03/18 04:49:39;;;;;;;21.63;8.68;;;;;;;2.91;100.00;104091.38;6153811;23;20209;-79
2022/03/18 04:52:08;;;;;;;13.57;8.57;;;;;;;2.93;100.00;104092.44;6119125;23;20374;-81
2022/03/18 04:54:36;;;;;;;15.82;9.60;;;;;;;2.96;100.00;104099.59;6145342;23;20033;-79
2022/03/18 04:57:15;;;;;;;16.05;8.90;;;;;;;3.01;100.00;104100.91;6102959;23;20029;-79
2022/03/18 04:59:47;;;;;;;22.83;8.93;;;;;;;3.03;100.00;104094.16;6156365;23;20416;-80
2022/03/18 05:02:16;;;;;;;19.20;8.88;;;;;;;3.05;100.00;104096.09;6132740;23;20025;-79
2022/03/18 05:04:48;;;;;;;17.85;8.63;;;;;;;3.06;100.00;104094.38;6152090;23;20369;-79
2022/03/18 05:07:19;;;;;;;19.42;9.63;;;;;;;3.05;100.00;104098.69;6130029;23;20025;-79
2022/03/18 05:09:50;;;;;;;20.15;10.70;;;;;;;3.07;100.00;104102.34;6121156;23;20140;-80
2022/03/18 05:12:19;;;;;;;14.30;8.02;;;;;;;3.07;100.00;104107.56;6134233;23;20018;-80
2022/03/18 05:14:53;;;;;;;17.75;9.00;;;;;;;3.07;100.00;104097.13;6164274;23;20021;-80
2022/03/18 05:17:22;;;;;;;17.30;9.00;;;;;;;3.05;100.00;104108.22;6239689;23;20020;-80
2022/03/18 05:19:50;;;;;;;12.25;8.52;;;;;;;3.03;100.00;104110.69;6189851;23;20215;-79
2022/03/18 05:22:19;;;;;;;12.65;8.35;;;;;;;3.02;100.00;104120.97;6247488;23;20016;-82
2022/03/18 05:24:47;;;;;;;14.23;9.10;;;;;;;3.00;100.00;104130.34;6223799;23;20027;-80
2022/03/18 05:27:16;;;;;;;17.02;9.00;;;;;;;2.97;100.00;104124.84;6207038;23;20442;-80
2022/03/18 05:29:47;;;;;;;15.50;9.30;;;;;;;2.95;100.00;104126.41;6229949;23;20229;-79
2022/03/18 05:32:16;;;;;;;14.10;9.82;;;;;;;2.90;100.00;104134.75;6254107;23;20016;-79
2022/03/18 05:34:45;;;;;;;17.05;10.20;;;;;;;2.87;100.00;104130.97;6250508;23;20134;-79
2022/03/18 05:37:13;;;;;;;14.80;9.60;;;;;;;2.82;100.00;104132.28;6218300;23;20020;-79
2022/03/18 05:39:42;;;;;;;32.65;18.70;;;;;;;2.77;100.00;104130.94;6183045;23;20023;-80
2022/03/18 05:42:12;;;;;;;16.17;11.48;;;;;;;2.72;100.00;104135.75;6251296;23;20031;-80
2022/03/18 05:44:41;;;;;;;18.52;10.50;;;;;;;2.69;100.00;104139.00;6218055;23;20020;-79
2022/03/18 05:47:09;;;;;;;15.13;9.07;;;;;;;2.67;100.00;104142.25;6224956;23;20023;-80
2022/03/18 05:49:37;;;;;;;14.27;9.70;;;;;;;2.66;100.00;104141.31;6219574;23;20035;-79
2022/03/18 05:52:08;;;;;;;16.52;9.65;;;;;;;2.64;100.00;104140.28;6223754;23;20031;-80
2022/03/18 05:54:37;;;;;;;17.83;9.82;;;;;;;2.64;100.00;104148.09;6242744;23;20024;-79
2022/03/18 05:57:06;;;;;;;17.42;9.77;;;;;;;2.63;100.00;104158.38;6226867;23;20016;-80
2022/03/18 05:59:37;;;;;;;13.40;9.23;;;;;;;2.62;100.00;104154.84;6247374;23;20016;-80
2022/03/18 06:02:06;;;;;;;14.20;9.45;;;;;;;2.60;100.00;104155.50;6202044;23;20043;-78
2022/03/18 06:04:36;;;;;;;15.65;9.25;;;;;;;2.59;100.00;104167.63;6219681;23;20019;-79
2022/03/18 06:07:05;;;;;;;15.38;9.82;;;;;;;2.56;100.00;104179.44;6224230;23;20023;-79
2022/03/18 06:12:21;;;;;;;15.20;9.93;;;;;;;2.53;100.00;104177.47;6227639;23;20258;-79
2022/03/18 06:14:49;;;;;;;13.55;8.50;;;;;;;2.50;100.00;104180.72;6213712;23;20631;-80
2022/03/18 06:17:18;;;;;;;11.32;8.68;;;;;;;2.49;100.00;104188.38;6224657;23;20031;-79
2022/03/18 06:19:46;;;;;;;16.10;9.45;;;;;;;2.48;100.00;104183.97;6171314;23;20020;-81
2022/03/18 06:22:15;;;;;;;12.50;8.55;;;;;;;2.49;100.00;104191.88;6224455;23;20020;-79
2022/03/18 06:24:44;;;;;;;18.45;10.55;;;;;;;2.50;100.00;104188.53;6236736;23;20181;-79
2022/03/18 06:27:13;;;;;;;15.50;8.70;;;;;;;2.50;100.00;104188.53;6224551;23;20024;-79
2022/03/18 06:29:44;;;;;;;21.75;12.18;;;;;;;2.53;100.00;104187.88;6238222;23;20051;-81
2022/03/18 06:32:12;;;;;;;17.80;10.40;;;;;;;2.55;100.00;104191.53;6225182;23;20020;-79
2022/03/18 06:34:42;;;;;;;12.85;9.30;;;;;;;2.57;100.00;104194.28;6223486;23;20046;-80
2022/03/18 06:37:10;;;;;;;13.45;9.80;;;;;;;2.60;100.00;104204.97;6199961;23;20031;-81
2022/03/18 06:39:41;;;;;;;17.50;9.88;;;;;;;2.63;100.00;104211.38;6220871;23;20024;-80
2022/03/18 06:42:09;;;;;;;13.75;9.23;;;;;;;2.67;100.00;104218.69;6218893;23;20016;-79
2022/03/18 06:44:38;;;;;;;19.58;10.38;;;;;;;2.70;100.00;104226.78;6246829;23;20293;-79
2022/03/18 06:47:07;;;;;;;14.95;9.75;;;;;;;2.75;100.00;104235.00;6218329;23;20027;-80
2022/03/18 06:49:36;;;;;;;17.63;9.73;;;;;;;2.88;100.00;104234.41;6241457;23;20024;-80
2022/03/18 06:52:05;;;;;;;17.35;10.35;;;;;;;3.02;100.00;104225.19;6182137;23;20346;-80
2022/03/18 06:54:33;;;;;;;18.50;9.88;;;;;;;3.14;100.00;104221.06;6212505;23;20016;-79
2022/03/18 06:57:02;;;;;;;21.60;10.65;;;;;;;3.31;100.00;104225.16;6233365;23;20020;-79
2022/03/18 06:59:31;;;;;;;13.23;9.52;;;;;;;3.56;100.00;104236.00;6205358;23;20234;-79
2022/03/18 07:02:04;;;;;;;23.02;10.35;;;;;;;3.92;100.00;104237.31;6178675;23;20024;-79
2022/03/18 07:04:33;;;;;;;15.13;9.15;;;;;;;4.28;100.00;104235.97;6217080;23;20016;-81
2022/03/18 07:07:03;;;;;;;16.17;9.10;;;;;;;4.86;100.00;104243.38;6214569;23;20031;-79
2022/03/18 07:09:43;;;;;;;15.60;9.45;;;;;;;5.42;100.00;104232.97;6197418;23;20027;-81
2022/03/18 07:12:11;;;;;;;11.75;7.70;;;;;;;5.98;100.00;104232.06;6151337;23;20028;-79
2022/03/18 07:14:40;;;;;;;14.52;8.13;;;;;;;6.51;100.00;104247.38;6211641;23;20016;-81
2022/03/18 07:19:58;;;;;;;14.13;8.00;;;;;;;7.32;100.00;104245.41;6205581;23;20293;-80
2022/03/18 07:22:27;;;;;;;11.52;6.50;;;;;;;7.72;100.00;104250.81;6218837;23;20013;-80
2022/03/18 07:24:55;;;;;;;12.30;6.60;;;;;;;8.08;100.00;104254.16;6207861;23;20043;-79
2022/03/18 07:27:24;;;;;;;16.58;7.63;;;;;;;8.35;100.00;104254.19;6212305;23;20028;-80
2022/03/18 07:29:52;;;;;;;19.55;7.90;;;;;;;8.56;100.00;104255.66;6210618;23;20031;-78
2022/03/18 07:32:20;;;;;;;12.45;8.13;;;;;;;8.78;100.00;104262.31;6238750;23;20012;-79
2022/03/18 07:34:49;;;;;;;16.70;7.10;;;;;;;9.06;100.00;104269.38;6176996;23;20028;-79
2022/03/18 07:37:17;;;;;;;15.35;7.82;;;;;;;9.38;100.00;104260.88;6217810;23;20016;-80
2022/03/18 07:39:46;;;;;;;11.85;7.13;;;;;;;9.71;100.00;104271.69;6229801;23;20370;-80
2022/03/18 07:42:14;;;;;;;12.75;7.50;;;;;;;10.10;100.00;104264.38;6181075;23;20016;-79
2022/03/18 07:44:43;;;;;;;11.75;6.50;;;;;;;10.47;100.00;104285.97;6218677;23;20469;-79
2022/03/18 07:47:11;;;;;;;12.52;6.78;;;;;;;10.79;100.00;104281.63;6220512;23;20023;-80
2022/03/18 07:49:40;;;;;;;13.27;6.35;;;;;;;11.10;100.00;104286.00;6183201;23;20023;-79
2022/03/18 07:52:09;;;;;;;14.45;6.47;;;;;;;11.39;100.00;104297.28;6217055;23;20047;-79
2022/03/18 07:54:39;;;;;;;17.38;9.15;;;;;;;11.56;100.00;104298.19;6248123;23;20035;-80
2022/03/18 07:57:08;;;;;;;20.38;7.68;;;;;;;11.74;100.00;104303.53;6186540;23;20072;-80
2022/03/18 07:59:36;;;;;;;14.77;8.25;;;;;;;11.82;100.00;104305.78;6182500;23;20024;-80
2022/03/18 08:02:07;;;;;;;;;;;;;;;11.80;100.00;104311.81;6246401;23;20016;-79
2022/03/18 08:04:36;;;;;;;16.08;8.00;;;;;;;11.85;100.00;104308.59;6222031;23;19919;-79
2022/03/18 08:07:05;;;;;;;19.03;8.60;;;;;;;11.99;100.00;104325.22;6221438;23;20035;-80
2022/03/18 08:09:34;;;;;;;19.17;7.88;;;;;;;12.13;100.00;104335.59;6198352;23;20708;-80
2022/03/18 08:12:03;;;;;;;12.25;7.95;;;;;;;12.20;100.00;104329.81;6192571;23;20027;-80
2022/03/18 08:14:32;;;;;;;17.00;7.20;;;;;;;12.32;100.00;104330.44;6217165;23;20469;-80
2022/03/18 08:17:01;;;;;;;13.52;7.60;;;;;;;12.41;100.00;104336.19;6182686;23;20020;-78
2022/03/18 08:19:29;;;;;;;17.77;7.28;;;;;;;12.57;100.00;104342.25;6176043;23;20024;-79
2022/03/18 08:22:00;;;;;;;18.17;7.57;;;;;;;12.63;100.00;104343.50;6188739;23;20366;-79
2022/03/18 08:24:31;;;;;;;16.35;6.53;;;;;;;12.71;100.00;104349.16;6201442;23;20454;-79
2022/03/18 08:26:59;;;;;;;9.73;6.75;;;;;;;12.85;100.00;104352.50;6174432;23;20681;-79
2022/03/18 08:29:32;;;;;;;15.10;7.20;;;;;;;12.97;100.00;104361.06;6200727;23;20016;-79
2022/03/18 08:32:01;;;;;;;19.48;6.90;;;;;;;13.03;100.00;104361.34;6205178;23;20050;-79
2022/03/18 08:34:29;;;;;;;16.63;7.10;;;;;;;12.95;100.00;104364.44;6215901;23;20015;-80
2022/03/18 08:36:58;;;;;;;23.27;7.70;;;;;;;12.98;100.00;104368.16;6215341;23;20766;-79
2022/03/18 08:39:26;;;;;;;17.52;7.65;;;;;;;13.02;100.00;104369.22;6197702;23;20020;-79
2022/03/18 08:42:01;;;;;;;16.98;7.43;;;;;;;13.06;100.00;104372.09;6187821;23;20020;-79
2022/03/18 08:44:35;;;;;;;16.92;7.28;;;;;;;13.21;100.00;104371.00;6167220;23;20028;-80
2022/03/18 08:47:05;;;;;;;18.20;7.60;;;;;;;13.38;100.00;104379.81;6181656;23;20027;-80
2022/03/18 08:49:33;;;;;;;15.95;7.68;;;;;;;13.51;100.00;104373.34;6223332;23;20469;-80
2022/03/18 08:52:04;;;;;;;13.88;7.00;;;;;;;13.59;100.00;104375.56;6203293;23;20581;-79
2022/03/18 08:54:33;;;;;;;18.15;7.55;;;;;;;13.73;100.00;104381.47;6223988;23;20016;-80
2022/03/18 08:57:01;;;;;;;16.42;6.90;;;;;;;13.76;100.00;104384.28;6177905;23;20071;-78
2022/03/18 08:59:30;;;;;;;17.63;6.97;;;;;;;13.88;99.89;104386.59;6184908;23;20024;-79
2022/03/18 09:02:05;;;;;;;16.85;7.57;;;;;;;13.98;98.61;104391.47;6130834;23;20337;-78
2022/03/18 09:04:33;;;;;;;17.50;7.10;;;;;;;14.08;96.90;104402.50;6223283;23;20027;-79
2022/03/18 09:07:02;;;;;;;15.55;6.75;;;;;;;14.09;95.27;104405.22;6218769;23;20215;-78
2022/03/18 09:09:31;;;;;;;16.83;6.60;;;;;;;14.03;95.20;104400.53;6221268;23;20031;-79
2022/03/18 09:11:59;;;;;;;15.50;7.07;;;;;;;14.01;94.59;104411.94;6182687;23;20027;-79
2022/03/18 09:14:28;;;;;;;16.85;6.13;;;;;;;13.93;93.59;104406.28;6204399;23;20020;-78
2022/03/18 09:16:57;;;;;;;20.85;6.90;;;;;;;13.87;93.03;104419.22;6196732;23;20012;-78
2022/03/18 09:19:25;;;;;;;15.00;6.88;;;;;;;13.73;92.58;104417.69;6196129;23;20020;-78
2022/03/18 09:21:54;;;;;;;17.38;7.60;;;;;;;13.57;92.74;104416.97;6219848;23;20027;-79
2022/03/18 09:24:23;;;;;;;18.38;5.55;;;;;;;13.40;92.10;104415.22;6198899;23;20015;-78
2022/03/18 09:26:51;;;;;;;17.17;6.07;;;;;;;13.15;92.06;104426.34;6167837;23;20020;-78
2022/03/18 09:29:24;;;;;;;17.40;5.35;;;;;;;12.91;93.50;104420.72;6198897;23;20020;-78
2022/03/18 09:31:53;;;;;;;15.05;5.75;;;;;;;12.70;93.54;104432.03;6222794;23;20311;-78
2022/03/18 09:34:24;;;;;;;17.33;6.25;;;;;;;12.47;94.39;104434.38;6244119;23;20016;-78
2022/03/18 09:36:57;;;;;;;24.15;6.22;;;;;;;12.29;95.31;104431.69;6219288;23;20317;-79
2022/03/18 09:39:29;;;;;;;20.40;6.28;;;;;;;12.15;96.62;104444.97;6239327;23;20016;-78
2022/03/18 09:42:03;;;;;;;17.95;6.82;;;;;;;11.99;97.50;104444.16;6216603;23;20026;-78
2022/03/18 09:44:42;;;;;;;16.23;7.07;;;;;;;11.89;99.22;104452.38;6217785;23;20027;-79
2022/03/18 09:47:11;;;;;;;17.95;6.78;;;;;;;11.74;99.86;104449.78;6183580;23;20016;-80
2022/03/18 09:49:43;;;;;;;20.63;7.07;;;;;;;11.65;100.00;104454.56;6229852;23;20021;-80
2022/03/18 09:52:12;;;;;;;22.65;6.93;;;;;;;11.59;100.00;104465.69;6245079;23;20024;-80
2022/03/18 09:54:41;;;;;;;20.75;6.80;;;;;;;11.56;100.00;104469.88;6192133;23;20012;-79
2022/03/18 09:57:11;;;;;;;20.02;7.30;;;;;;;11.51;100.00;104475.81;6203986;23;20350;-80
2022/03/18 09:59:40;;;;;;;26.52;6.78;;;;;;;11.44;100.00;104471.00;6214215;23;20021;-80
2022/03/18 10:02:25;;;;;;;18.13;6.47;;;;;;;11.28;100.00;104470.94;6216826;23;20028;-79
2022/03/18 10:04:59;;;;;;;19.92;5.45;;;;;;;11.21;100.00;104479.28;6231244;23;20382;-78
2022/03/18 10:07:29;;;;;;;23.00;6.15;;;;;;;11.20;100.00;104481.03;6239604;23;20017;-80
2022/03/18 10:10:15;;;;;;;22.48;6.35;;;;;;;11.26;100.00;104488.41;6248662;23;20199;-79
2022/03/18 10:12:47;;;;;;;14.05;4.75;;;;;;;11.26;100.00;104498.97;6185899;23;20024;-79
2022/03/18 10:15:19;;;;;;;24.20;6.78;;;;;;;11.26;100.00;104489.31;6222170;23;20012;-81
2022/03/18 10:17:50;;;;;;;20.05;5.80;;;;;;;11.31;100.00;104485.22;6182794;23;20468;-79
2022/03/18 10:20:30;;;;;;;18.58;5.93;;;;;;;11.30;100.00;104488.69;6239518;23;20023;-78
2022/03/18 10:23:19;;;;;;;23.92;6.40;;;;;;;11.33;100.00;104493.22;6211588;23;20029;-79
2022/03/18 10:25:51;;;;;;;18.52;6.00;;;;;;;11.35;100.00;104490.69;6213419;23;20598;-80
2022/03/18 10:28:40;;;;;;;20.70;4.95;;;;;;;11.31;100.00;104490.50;6224591;23;20021;-80
2022/03/18 10:31:21;;;;;;;20.35;6.03;;;;;;;11.28;100.00;104498.22;6243445;23;20112;-80
2022/03/18 10:39:38;;;;;;;23.30;6.22;;;;;;;11.28;100.00;104503.50;6221292;23;20031;-79
2022/03/18 10:42:14;;;;;;;18.80;5.47;;;;;;;11.30;100.00;104504.53;6221467;23;20020;-78
2022/03/18 10:44:46;;;;;;;20.75;6.57;;;;;;;11.33;100.00;104503.78;6231944;23;20017;-79
2022/03/18 10:47:28;;;;;;;22.08;5.57;;;;;;;11.29;100.00;104499.16;6208962;23;20446;-79
2022/03/18 10:50:12;;;;;;;24.15;6.07;;;;;;;11.33;100.00;104503.78;6198103;23;20024;-79
2022/03/18 10:53:01;;;;;;;23.30;6.80;;;;;;;11.41;100.00;104502.50;6239310;23;20031;-79
2022/03/18 10:55:42;;;;;;;21.85;6.57;;;;;;;11.38;100.00;104511.97;6215219;23;20025;-79
2022/03/18 10:58:20;;;;;;;23.65;6.03;;;;;;;11.41;100.00;104506.88;6225775;23;20027;-79
2022/03/18 11:00:52;;;;;;;23.75;7.03;;;;;;;11.47;100.00;104510.81;6248155;23;20013;-79
2022/03/18 11:03:28;;;;;;;22.77;6.75;;;;;;;11.53;100.00;104518.16;6244105;23;20017;-78
2022/03/18 11:06:02;;;;;;;23.73;6.72;;;;;;;11.62;100.00;104512.50;6207534;23;20072;-79
2022/03/18 11:08:48;;;;;;;24.50;7.82;;;;;;;11.71;100.00;104520.94;6237263;23;20020;-79
2022/03/18 11:11:22;;;;;;;14.15;7.13;;;;;;;11.79;100.00;104521.38;6199948;23;20021;-80
2022/03/18 11:14:02;;;;;;;21.52;7.22;;;;;;;11.87;100.00;104528.94;6223160;23;20021;-80
2022/03/18 11:16:38;;;;;;;22.15;8.48;;;;;;;11.90;100.00;104525.56;6150814;23;20025;-81
2022/03/18 11:19:14;;;;;;;20.58;6.80;;;;;;;11.89;100.00;104529.97;6213377;23;20016;-79
2022/03/18 11:21:45;;;;;;;24.77;8.27;;;;;;;11.80;100.00;104536.44;6206960;23;20020;-79
2022/03/18 11:24:15;;;;;;;;;;;;;;;11.79;100.00;104537.22;6148687;23;20027;-78
2022/03/18 11:26:49;;;;;;;22.38;7.38;;;;;;;11.84;100.00;104530.50;6201669;23;20400;-81
2022/03/18 11:29:24;;;;;;;30.63;7.95;;;;;;;11.80;100.00;104529.41;6240949;23;20025;-80
2022/03/18 11:32:26;;;;;;;24.02;8.13;;;;;;;11.76;100.00;104530.06;6243148;23;20016;-79
2022/03/18 11:35:06;;;;;;;22.35;7.47;;;;;;;11.73;100.00;104536.91;6183402;23;20027;-79
2022/03/18 11:37:35;;;;;;;22.20;7.57;;;;;;;11.79;100.00;104539.88;6230119;23;20020;-79
2022/03/18 11:40:19;;;;;;;24.50;9.27;;;;;;;11.89;100.00;104529.97;6159212;23;20020;-81
2022/03/18 11:42:49;;;;;;;29.88;8.00;;;;;;;11.97;100.00;104533.03;6223867;23;20016;-79
2022/03/18 11:45:42;;;;;;;24.15;6.97;;;;;;;12.02;100.00;104533.28;6205376;23;20020;-78
2022/03/18 11:48:34;;;;;;;18.30;6.40;;;;;;;12.04;100.00;104542.19;6185172;23;20031;-80
2022/03/18 11:51:40;;;;;;;24.10;7.28;;;;;;;11.99;100.00;104539.31;6234568;23;20031;-79